« Back
NWS Peachtree City, Ga » Text Product » AHN Terminal Aerodrome Forecast


Printer-friendly Version
Current Version              Previous Versions:   1  2  3  4  5  6  7  8  9  

Terminal Aerodrome Forecast

474
FTAK31 PAJN 312323
TAFAHN
TAF
PAHN 312323Z 0100/0124 31007KT P6SM SCT050 BKN100
     FM010900 31012KT P6SM SCT050 SCT100
     FM012100 30007KT P6SM SCT050 BKN100
      AMD LTD TO CLD VIS AND WIND=

USA.gov is the U.S. government's official web portal to all federal, state and local government web resources and services.